METAR Data
IDs: Format: Raw Decoded Include TAF

Data at: 2000 UTC 14 Dec 2018

KPIL 141953Z AUTO 29026G34KT 10SM -RA CLR 18/M04 A3009 RMK AO2 PK WND 29036/1917 SLP187 P0000 T01781039
KPIL 141853Z AUTO 31026G33KT 10SM -RA CLR 18/M04 A3011 RMK AO2 PK WND 30036/1825 SLP194 P0000 T01831039
KPIL 141753Z AUTO 31025G32KT 10SM -RA CLR 17/M04 A3014 RMK AO2 PK WND 31036/1705 SLP204 P0000 60000 T01721044 10172 20100 58004
KPIL 141653Z AUTO 31026G35KT 10SM -RA CLR 16/M04 A3015 RMK AO2 PK WND 30042/1612 SLP208 P0000 T01611044
KPIL 141553Z AUTO 31019G33KT 10SM -RA CLR 15/M04 A3015 RMK AO2 PK WND 30033/1548 RAB14 SLP209 P0000 T01501044
KPIL 141453Z AUTO 31018G24KT 10SM CLR 13/M04 A3015 RMK AO2 SLP209 T01331044 51023
KPIL 141353Z AUTO 30010KT 10SM CLR 11/M03 A3013 RMK AO2 SLP202 T01061033
KPIL 141253Z AUTO 29009KT 10SM CLR 11/M04 A3011 RMK AO2 SLP194 T01111039
KPIL 141153Z AUTO 28008KT 10SM CLR 11/M03 A3008 RMK AO2 SLP186 60000 T01111028 10144 20111 53009
KPIL 141053Z AUTO 29007KT 10SM CLR 11/M02 A3007 RMK AO2 SLP181 T01111017
KPIL 140953Z AUTO 29014KT 10SM CLR 12/M02 A3006 RMK AO2 SLP179 T01221017
KPIL 140853Z AUTO 30017KT 10SM CLR 12/M01 A3006 RMK AO2 SLP177 60000 T01221006 58002
KPIL 140753Z AUTO 31014KT 10SM CLR 12/00 A3006 RMK AO2 PK WND 32026/0708 RAE49 SLP179 P0000 T01220000
KPIL 140653Z AUTO 31013G20KT 10SM -RA CLR 13/M01 A3007 RMK AO2 SLP180 P0000 T01331006
KPIL 140553Z AUTO 31017G22KT 10SM -RA FEW110 14/01 A3006 RMK AO2 RAE13B31 SLP179 P0000 60000 T01390006 10217 20139 402890139 50020
KPIL 140453Z AUTO 31011KT 10SM -RA CLR 14/02 A3008 RMK AO2 PK WND 32029/0408 SLP185 P0000 T01390022
KPIL 140353Z AUTO 31018G24KT 10SM -RA OVC120 15/03 A3004 RMK AO2 PK WND 33026/0257 SLP172 P0000 T01500028
KPIL 140253Z AUTO 33018G26KT 10SM -RA OVC100 17/03 A3000 RMK AO2 PK WND 33034/0201 SLP158 P0000 60000 T01670028 51060
KPIL 140153Z AUTO 32023KT 10SM -RA BKN100 17/03 A2997 RMK AO2 PK WND 32039/0110 RAB00 SLP147 P0000 T01720033
KPIL 140053Z AUTO 33026G32KT 10SM CLR 19/03 A2989 RMK AO2 PK WND 32036/0041 RAB43E52 SLP122 P0000 T01940033
KPIL 132353Z AUTO 35010KT 10SM CLR 22/13 A2982 RMK AO2 PRESRR SLP098 T02170128 10289 20217 53030
KPIL 132253Z AUTO 31011KT 10SM CLR 27/11 A2977 RMK AO2 SLP082 T02670111
KPIL 132153Z AUTO 31012KT 10SM CLR 28/12 A2975 RMK AO2 SLP074 T02780122
KPIL 132053Z AUTO 31017G22KT 10SM CLR 28/12 A2973 RMK AO2 SLP068 T02830122 56019
KPIL 131953Z AUTO 31014KT 10SM CLR 28/11 A2974 RMK AO2 SLP069 T02830106
KPIL 131853Z AUTO 27009KT 8SM CLR 27/16 A2976 RMK AO2 SLP078 T02720161
KPIL 131753Z AUTO 24008KT 5SM HZ CLR 26/18 A2979 RMK AO2 SLP087 T02610183 10261 20167 58005
KPIL 131653Z AUTO 25012KT 7SM CLR 24/18 A2981 RMK AO2 SLP093 T02440183
KPIL 131553Z AUTO 21011KT 8SM CLR 22/19 A2981 RMK AO2 SLP094 T02220189
KPIL 131453Z AUTO 21006KT 8SM CLR 19/18 A2980 RMK AO2 SLP091 T01890178 53005
KPIL 131353Z AUTO 17006KT 3SM BR CLR 17/17 A2979 RMK AO2 SLP088 T01720167
KPIL 131326Z AUTO 17004KT 2 1/2SM BR CLR 17/17 A2979 RMK AO2 T01720167
KPIL 131253Z AUTO 15003KT 5SM BR CLR 17/17 A2978 RMK AO2 SLP083 T01720167
KPIL 131153Z AUTO 00000KT 9SM FEW018 SCT075 SCT120 18/18 A2979 RMK AO2 LTG DSNT E RAE20 SLP087 P0000 60014 70019 T01830178 10200 20183 58010
KPIL 131139Z AUTO 30004KT 9SM SCT019 BKN050 OVC120 18/18 A2980 RMK AO2 LTG DSNT E RAE20 PRESFR P0000 T01830178
KPIL 131100Z AUTO 29010KT 6SM -RA BR FEW009 BKN016 OVC030 19/18 A2982 RMK AO2 LTG DSNT N-E P0000 T01890178
KPIL 131053Z AUTO 30009KT 3SM RA BR SCT011 BKN016 OVC022 19/18 A2982 RMK AO2 LTG DSNT NW-NE RAB48 SLP097 P0004 T01890183
KPIL 131042Z AUTO 29006KT 7SM FEW013 BKN023 OVC040 19/18 A2982 RMK AO2 LTG DSNT NW-NE T01890178
KPIL 131033Z AUTO 29006KT 7SM SCT023 OVC041 19/18 A2983 RMK AO2 LTG DSNT N AND NE T01890178
KPIL 131012Z AUTO 26004KT 7SM VCTS FEW039 BKN055 OVC110 19/18 A2982 RMK AO2 LTG DSNT N AND NW T01890178
KPIL 130953Z AUTO 25006KT 8SM BKN110 19/18 A2982 RMK AO2 LTG DSNT N AND NW RAE0858 SLP096 P0000 T01890178
KPIL 130853Z AUTO 22005KT 8SM -RA BKN110 19/18 A2982 RMK AO2 SLP097 P0000 60010 T01940183 58026